Time;durP1;ratioP1;P1;durP2;ratioP2;P2;SDS_P1;SDS_P2;PMS_P1;PMS_P2;Temp;Humidity;BMP_temperature;BMP_pressure;BME280_temperature;BME280_humidity;BME280_pressure;Samples;Min_cycle;Max_cycle;Signal;HPM_P1;HPM_P2
2022/03/31 00:00:42;;;;;;;4.55;2.17;;;;;;;4.06;nan;100698.97;5045921;28;20398;-51
2022/03/31 00:03:11;;;;;;;7.30;2.47;;;;;;;4.04;nan;100703.66;5043366;28;20029;-51
2022/03/31 00:05:37;;;;;;;3.47;2.00;;;;;;;4.02;nan;100702.25;5047723;28;20103;-50
2022/03/31 00:08:13;;;;;;;4.05;2.30;;;;;;;3.98;nan;100708.97;5049343;28;20024;-51
2022/03/31 00:10:59;;;;;;;4.60;2.17;;;;;;;3.89;nan;100703.06;5051295;28;20021;-53
2022/03/31 00:13:27;;;;;;;5.72;2.25;;;;;;;3.91;nan;100708.97;5048360;28;20045;-53
2022/03/31 00:15:56;;;;;;;4.85;2.17;;;;;;;3.87;nan;100707.75;5045949;28;20113;-52
2022/03/31 00:18:22;;;;;;;7.95;2.33;;;;;;;3.83;nan;100712.66;5051549;28;20025;-49
2022/03/31 00:20:47;;;;;;;4.72;2.50;;;;;;;3.81;nan;100705.94;5046695;28;20028;-48
2022/03/31 00:23:13;;;;;;;4.32;2.10;;;;;;;3.77;nan;100704.69;5051383;28;20466;-52
2022/03/31 00:25:39;;;;;;;3.08;2.13;;;;;;;3.73;nan;100712.22;5048838;28;20028;-49
2022/03/31 00:28:05;;;;;;;3.10;2.30;;;;;;;3.68;nan;100714.69;5051748;28;20497;-48
2022/03/31 00:30:31;;;;;;;4.43;2.60;;;;;;;3.63;nan;100710.00;5048758;28;20056;-52
2022/03/31 00:32:57;;;;;;;3.58;2.20;;;;;;;3.62;nan;100707.56;5049392;28;20512;-50
2022/03/31 00:35:23;;;;;;;3.92;2.10;;;;;;;3.63;nan;100711.84;5045988;28;20025;-53
2022/03/31 00:37:49;;;;;;;4.03;2.15;;;;;;;3.59;nan;100710.59;5048904;28;20038;-54
2022/03/31 00:40:17;;;;;;;6.65;2.40;;;;;;;3.52;nan;100715.09;5044141;28;20614;-54
2022/03/31 00:42:49;;;;;;;3.15;1.88;;;;;;;3.51;nan;100714.28;5044953;28;20328;-51
2022/03/31 00:45:24;;;;;;;7.40;2.22;;;;;;;3.48;nan;100713.88;5049764;28;20028;-52
2022/03/31 00:47:50;;;;;;;3.55;1.80;;;;;;;3.47;nan;100714.88;5046962;28;20417;-51
2022/03/31 00:50:16;;;;;;;4.05;2.20;;;;;;;3.46;nan;100710.59;5048478;28;20128;-52
2022/03/31 00:52:43;;;;;;;3.75;2.20;;;;;;;3.41;nan;100708.56;5051625;28;20487;-49
2022/03/31 00:55:11;;;;;;;4.47;2.17;;;;;;;3.29;nan;100710.97;5050544;28;20056;-49
2022/03/31 00:57:37;;;;;;;3.08;1.88;;;;;;;3.23;nan;100714.44;5049514;28;20393;-50
2022/03/31 01:00:07;;;;;;;2.78;1.58;;;;;;;3.20;nan;100711.34;5051641;28;20021;-50
2022/03/31 01:02:35;;;;;;;4.55;2.20;;;;;;;3.17;nan;100715.22;5046793;28;20028;-48
2022/03/31 01:05:01;;;;;;;5.15;2.08;;;;;;;3.17;nan;100712.56;5046216;28;20033;-50
2022/03/31 01:07:28;;;;;;;5.85;2.20;;;;;;;3.19;nan;100704.44;5048792;28;20033;-51
2022/03/31 01:09:57;;;;;;;6.28;2.20;;;;;;;3.21;nan;100715.63;5043779;28;20465;-50
2022/03/31 01:12:23;;;;;;;3.58;1.92;;;;;;;3.15;nan;100711.97;5046029;28;20036;-48
2022/03/31 01:15:14;;;;;;;5.95;2.00;;;;;;;3.01;nan;100710.28;5040127;28;20082;-53
2022/03/31 01:17:42;;;;;;;4.05;1.73;;;;;;;3.07;nan;100704.22;5037178;28;20133;-50
2022/03/31 01:20:11;;;;;;;3.60;1.83;;;;;;;3.04;nan;100709.88;5047944;28;20528;-52
2022/03/31 01:22:37;;;;;;;3.47;1.80;;;;;;;3.00;nan;100706.00;5050641;28;20044;-50
2022/03/31 01:25:06;;;;;;;2.95;1.90;;;;;;;2.97;nan;100706.41;5046578;28;20033;-49
2022/03/31 01:27:35;;;;;;;4.53;2.25;;;;;;;2.93;nan;100705.19;5045247;28;20059;-53
2022/03/31 01:30:01;;;;;;;6.72;2.03;;;;;;;2.88;nan;100704.97;5045626;28;20094;-50
2022/03/31 01:32:27;;;;;;;3.92;2.10;;;;;;;2.88;nan;100707.63;5045510;28;20087;-54
2022/03/31 01:34:52;;;;;;;3.58;2.10;;;;;;;2.87;nan;100706.81;5043328;28;20035;-49
2022/03/31 01:37:19;;;;;;;6.45;2.40;;;;;;;2.85;nan;100705.34;5047045;28;20021;-50
2022/03/31 01:39:45;;;;;;;4.60;2.15;;;;;;;2.84;nan;100711.66;5043696;28;20029;-50
2022/03/31 01:42:10;;;;;;;5.13;1.95;;;;;;;2.83;nan;100710.84;5044622;28;20359;-50
2022/03/31 01:44:36;;;;;;;4.63;2.00;;;;;;;2.80;nan;100707.78;5044942;28;20025;-48
2022/03/31 01:47:02;;;;;;;2.80;2.35;;;;;;;2.75;nan;100702.28;5043363;28;20024;-50
2022/03/31 01:49:27;;;;;;;5.10;2.08;;;;;;;2.68;nan;100715.47;5046007;28;20039;-53
2022/03/31 01:51:53;;;;;;;5.10;2.03;;;;;;;2.66;nan;100712.19;5042688;28;20040;-52
2022/03/31 01:54:18;;;;;;;6.25;2.63;;;;;;;2.64;nan;100717.69;5045932;28;20048;-51
2022/03/31 01:56:44;;;;;;;9.55;2.90;;;;;;;2.61;nan;100710.16;5045889;28;20520;-48
2022/03/31 01:59:11;;;;;;;5.07;2.30;;;;;;;2.56;nan;100715.22;5045015;28;20024;-48
2022/03/31 02:01:36;;;;;;;3.42;1.95;;;;;;;2.51;nan;100712.31;5046397;28;20525;-49
2022/03/31 02:04:02;;;;;;;5.03;2.60;;;;;;;2.47;nan;100712.91;5047587;28;20170;-51
2022/03/31 02:06:29;;;;;;;4.93;2.25;;;;;;;2.45;nan;100705.19;5053173;22;20045;-46
2022/03/31 02:08:56;;;;;;;4.38;2.63;;;;;;;2.43;nan;100707.22;5036711;28;20032;-44
2022/03/31 02:11:22;;;;;;;5.03;1.80;;;;;;;2.40;nan;100707.63;5034147;28;20061;-45
2022/03/31 02:13:48;;;;;;;4.55;2.22;;;;;;;2.34;nan;100711.84;5036983;28;20029;-46
2022/03/31 02:16:14;;;;;;;4.40;1.77;;;;;;;2.34;nan;100713.69;5027815;28;20204;-46
2022/03/31 02:18:40;;;;;;;6.22;2.10;;;;;;;2.32;nan;100711.22;5026303;28;20482;-44
2022/03/31 02:21:06;;;;;;;3.20;2.03;;;;;;;2.30;nan;100709.78;5027021;28;20022;-46
2022/03/31 02:23:32;;;;;;;4.97;2.03;;;;;;;2.27;nan;100711.00;5024479;28;20029;-44
2022/03/31 02:25:57;;;;;;;4.40;2.80;;;;;;;2.24;nan;100707.91;5023110;28;20465;-45
2022/03/31 02:28:23;;;;;;;5.40;2.10;;;;;;;2.19;nan;100712.97;5024592;28;20025;-46
2022/03/31 02:30:48;;;;;;;4.40;2.50;;;;;;;2.15;nan;100717.00;5024994;28;20139;-45
2022/03/31 02:33:14;;;;;;;6.05;2.25;;;;;;;2.10;nan;100707.00;5024315;28;20379;-45
2022/03/31 02:35:39;;;;;;;4.07;2.08;;;;;;;2.06;nan;100713.69;5022646;28;20402;-45
2022/03/31 02:38:05;;;;;;;3.90;1.90;;;;;;;2.09;nan;100708.84;5025084;28;20164;-45
2022/03/31 02:40:31;;;;;;;3.55;1.98;;;;;;;2.07;nan;100710.88;5024136;28;20091;-46
2022/03/31 02:42:56;;;;;;;3.33;1.90;;;;;;;2.04;nan;100705.97;5022891;28;20017;-45
2022/03/31 02:45:22;;;;;;;4.78;2.08;;;;;;;2.00;nan;100703.91;5021984;28;20029;-47
2022/03/31 02:47:48;;;;;;;3.00;1.77;;;;;;;1.97;nan;100704.28;5007191;28;20032;-46
2022/03/31 02:50:17;;;;;;;5.00;2.28;;;;;;;1.94;nan;100716.06;5025273;28;20029;-45
2022/03/31 02:55:30;;;;;;;4.05;1.80;;;;;;;1.87;nan;100709.91;5023478;28;20098;-45
2022/03/31 02:58:00;;;;;;;5.10;1.85;;;;;;;1.86;nan;100718.84;5024709;28;20026;-45
2022/03/31 03:00:26;;;;;;;3.67;2.22;;;;;;;1.85;nan;100719.84;5024677;28;20033;-45
2022/03/31 03:02:53;;;;;;;6.25;2.13;;;;;;;1.80;nan;100711.69;5024332;28;20021;-45
2022/03/31 03:05:19;;;;;;;3.78;2.00;;;;;;;1.78;nan;100713.69;5022426;28;20026;-47
2022/03/31 03:07:45;;;;;;;3.75;1.50;;;;;;;1.78;nan;100714.50;5023749;28;20094;-45
2022/03/31 03:10:11;;;;;;;2.20;1.70;;;;;;;1.75;nan;100717.53;5025109;28;20027;-45
2022/03/31 03:12:36;;;;;;;4.55;2.03;;;;;;;1.73;nan;100722.19;5020801;28;20026;-46
2022/03/31 03:15:03;;;;;;;3.70;2.13;;;;;;;1.69;nan;100712.22;5024923;28;20033;-45
2022/03/31 03:17:29;;;;;;;2.60;1.63;;;;;;;1.66;nan;100712.59;5022333;28;20116;-45
2022/03/31 03:19:55;;;;;;;5.43;2.15;;;;;;;1.63;nan;100713.78;5024196;28;20116;-45
2022/03/31 03:22:21;;;;;;;4.07;1.80;;;;;;;1.60;nan;100714.16;5024213;28;20013;-44
2022/03/31 03:24:46;;;;;;;4.40;2.08;;;;;;;1.57;nan;100713.72;5024131;28;20426;-45
2022/03/31 03:27:12;;;;;;;3.00;2.00;;;;;;;1.55;nan;100716.56;5023556;28;20024;-45
2022/03/31 03:29:45;;;;;;;5.45;2.20;;;;;;;1.52;nan;100720.38;5022098;28;20060;-45
2022/03/31 03:32:10;;;;;;;3.45;1.90;;;;;;;1.48;nan;100721.78;5024213;28;20026;-46
2022/03/31 03:34:36;;;;;;;2.83;1.92;;;;;;;1.48;nan;100718.31;5022861;28;20069;-47
2022/03/31 03:37:01;;;;;;;3.35;2.10;;;;;;;1.48;nan;100724.41;5023103;28;21297;-45
2022/03/31 03:39:27;;;;;;;3.10;2.10;;;;;;;1.50;nan;100729.50;5025295;28;20132;-45
2022/03/31 03:41:52;;;;;;;3.90;2.22;;;;;;;1.47;nan;100724.63;5018556;28;20056;-45
2022/03/31 03:44:18;;;;;;;4.22;1.80;;;;;;;1.45;nan;100729.28;5022883;28;20028;-44
2022/03/31 03:46:43;;;;;;;4.40;1.77;;;;;;;1.42;nan;100721.69;5023353;28;20057;-45
2022/03/31 03:49:09;;;;;;;5.28;2.25;;;;;;;1.38;nan;100723.91;5024742;28;20397;-45
2022/03/31 03:51:34;;;;;;;4.72;1.90;;;;;;;1.35;nan;100720.84;5023178;28;20106;-45
2022/03/31 03:54:00;;;;;;;4.18;1.85;;;;;;;1.35;nan;100721.66;5023408;28;20048;-45
2022/03/31 03:56:25;;;;;;;4.28;2.25;;;;;;;1.32;nan;100722.03;5022740;28;20040;-45
2022/03/31 03:58:51;;;;;;;5.32;2.30;;;;;;;1.33;nan;100728.13;5020676;28;20029;-44
2022/03/31 04:01:19;;;;;;;6.68;1.88;;;;;;;1.28;nan;100718.13;5025604;28;20075;-45
2022/03/31 04:03:44;;;;;;;3.92;2.03;;;;;;;1.25;nan;100715.84;5025448;28;20038;-45
2022/03/31 04:06:11;;;;;;;4.45;2.05;;;;;;;1.24;nan;100718.69;5019651;28;20033;-45
2022/03/31 04:08:38;;;;;;;4.18;2.00;;;;;;;1.22;nan;100721.50;5018790;28;20029;-45
2022/03/31 04:11:04;;;;;;;4.65;2.10;;;;;;;1.20;nan;100723.53;5021070;28;20037;-45
2022/03/31 04:13:29;;;;;;;6.47;2.13;;;;;;;1.13;nan;100723.47;5025138;28;20390;-44
2022/03/31 04:15:55;;;;;;;2.80;1.95;;;;;;;1.11;nan;100717.56;5027929;28;20501;-46
2022/03/31 04:18:20;;;;;;;4.55;2.17;;;;;;;1.09;nan;100726.66;5028783;28;20143;-46
2022/03/31 04:20:46;;;;;;;4.10;2.17;;;;;;;1.08;nan;100731.13;5027476;28;20037;-47
2022/03/31 04:23:11;;;;;;;3.10;2.08;;;;;;;1.04;nan;100723.75;5026373;28;20104;-47
2022/03/31 04:25:37;;;;;;;4.05;1.88;;;;;;;1.02;nan;100731.84;5025324;28;20495;-45
2022/03/31 04:28:04;;;;;;;2.92;1.80;;;;;;;1.02;nan;100723.13;5027664;28;20021;-46
2022/03/31 04:30:29;;;;;;;3.78;1.90;;;;;;;1.01;nan;100724.13;5027608;28;20498;-45
2022/03/31 04:32:55;;;;;;;3.92;1.98;;;;;;;0.97;nan;100726.31;5024219;28;20026;-45
2022/03/31 04:35:21;;;;;;;5.88;2.28;;;;;;;0.91;nan;100727.06;5026096;28;20034;-45
2022/03/31 04:37:47;;;;;;;6.43;2.38;;;;;;;0.88;nan;100724.78;5020244;28;20543;-46
2022/03/31 04:40:14;;;;;;;4.93;2.05;;;;;;;0.88;nan;100730.88;5026326;28;20025;-46
2022/03/31 04:42:40;;;;;;;6.13;2.00;;;;;;;0.89;nan;100724.59;5028801;28;20024;-47
2022/03/31 04:45:06;;;;;;;3.78;1.90;;;;;;;0.91;nan;100729.72;5028103;28;20176;-46
2022/03/31 04:47:32;;;;;;;4.03;1.98;;;;;;;0.88;nan;100727.41;5028998;28;20025;-46
2022/03/31 04:49:58;;;;;;;4.30;1.95;;;;;;;0.83;nan;100727.97;5027910;28;20379;-45
2022/03/31 04:52:23;;;;;;;4.57;2.05;;;;;;;0.80;nan;100727.53;5028693;28;20025;-46
2022/03/31 04:54:49;;;;;;;4.50;2.20;;;;;;;0.77;nan;100728.72;5027915;28;20037;-46
2022/03/31 04:57:18;;;;;;;3.67;1.95;;;;;;;0.80;nan;100735.44;5024891;28;20030;-46
2022/03/31 04:59:44;;;;;;;4.57;2.25;;;;;;;0.77;nan;100722.63;5025378;28;20033;-47
2022/03/31 05:02:12;;;;;;;4.57;1.98;;;;;;;0.75;nan;100736.00;5028725;28;20021;-46
2022/03/31 05:04:38;;;;;;;6.25;2.10;;;;;;;0.75;nan;100730.75;5027356;28;20401;-45
